createdAt,value
2018-07-25T00:00:31.848Z,11.03
2018-07-25T00:03:36.065Z,9.90
2018-07-25T00:06:40.265Z,8.83
2018-07-25T00:09:44.497Z,12.70
2018-07-25T00:12:48.708Z,9.23
2018-07-25T00:15:52.920Z,10.57
2018-07-25T00:18:57.104Z,10.03
2018-07-25T00:22:01.330Z,10.20
2018-07-25T00:25:05.585Z,10.13
2018-07-25T00:28:09.822Z,9.77
2018-07-25T00:31:14.012Z,10.30
2018-07-25T00:34:18.244Z,9.97
2018-07-25T00:37:22.449Z,10.40
2018-07-25T00:40:26.687Z,11.70
2018-07-25T00:43:30.914Z,11.07
2018-07-25T00:46:35.193Z,10.47
2018-07-25T00:49:39.394Z,9.80
2018-07-25T00:52:43.609Z,11.13
2018-07-25T00:55:47.821Z,14.10
2018-07-25T00:58:52.050Z,11.17
2018-07-25T01:01:56.280Z,10.10
2018-07-25T01:05:00.514Z,11.60
2018-07-25T01:08:04.720Z,10.47
2018-07-25T01:11:09.002Z,11.70
2018-07-25T01:14:13.212Z,10.33
2018-07-25T01:17:17.485Z,12.87
2018-07-25T01:20:21.681Z,12.03
2018-07-25T01:23:25.919Z,10.60
2018-07-25T01:26:30.118Z,10.30
2018-07-25T01:29:34.120Z,10.87
2018-07-25T01:32:38.356Z,11.97
2018-07-25T01:35:42.629Z,11.93
2018-07-25T01:38:46.824Z,11.03
2018-07-25T01:41:51.060Z,11.30
2018-07-25T01:44:55.260Z,9.47
2018-07-25T01:47:59.497Z,10.20
2018-07-25T01:51:03.740Z,9.47
2018-07-25T01:54:07.963Z,10.27
2018-07-25T01:57:12.219Z,10.10
2018-07-25T02:00:16.473Z,8.83
2018-07-25T02:03:20.705Z,9.07
2018-07-25T02:06:25.717Z,8.70
2018-07-25T02:09:29.940Z,9.87
2018-07-25T02:12:34.264Z,12.83
2018-07-25T02:15:38.452Z,10.70
2018-07-25T02:18:42.689Z,9.00
2018-07-25T02:21:46.892Z,11.80
2018-07-25T02:24:51.145Z,11.13
2018-07-25T02:27:55.397Z,10.20
2018-07-25T02:31:00.047Z,9.93
2018-07-25T02:34:09.637Z,9.63
2018-07-25T02:37:13.865Z,10.70
2018-07-25T02:40:18.220Z,10.17
2018-07-25T02:43:22.443Z,10.73
2018-07-25T02:46:26.678Z,12.73
2018-07-25T02:49:30.936Z,11.10
2018-07-25T02:52:35.165Z,12.27
2018-07-25T02:55:39.394Z,9.20
2018-07-25T02:58:43.618Z,9.57
2018-07-25T03:01:47.853Z,13.13
2018-07-25T03:04:52.077Z,7.80
2018-07-25T03:07:56.278Z,8.83
2018-07-25T03:11:00.510Z,8.23
2018-07-25T03:14:04.742Z,9.53
2018-07-25T03:17:09.139Z,10.07
2018-07-25T03:20:13.425Z,12.17
2018-07-25T03:23:17.614Z,12.43
2018-07-25T03:26:21.843Z,13.30
2018-07-25T03:29:26.049Z,12.70
2018-07-25T03:32:30.245Z,13.87
2018-07-25T03:35:34.445Z,12.03
2018-07-25T03:38:38.668Z,11.93
2018-07-25T03:41:42.888Z,13.70
2018-07-25T03:44:47.128Z,12.20
2018-07-25T03:47:51.344Z,9.93
2018-07-25T03:50:55.597Z,10.07
2018-07-25T03:53:59.837Z,11.90
2018-07-25T03:57:04.114Z,10.07
2018-07-25T04:00:08.313Z,11.87
2018-07-25T04:03:12.542Z,9.80
2018-07-25T04:06:16.767Z,10.93
2018-07-25T04:09:20.977Z,9.57
2018-07-25T04:12:25.356Z,9.50
2018-07-25T04:15:29.349Z,9.60
2018-07-25T04:18:33.549Z,9.97
2018-07-25T04:21:37.746Z,9.53
2018-07-25T04:24:41.986Z,9.30
2018-07-25T04:27:46.978Z,10.43
2018-07-25T04:30:51.216Z,11.97
2018-07-25T04:33:55.427Z,12.73
2018-07-25T04:36:59.634Z,10.37
2018-07-25T04:40:03.873Z,12.40
2018-07-25T04:43:08.096Z,14.83
2018-07-25T04:46:12.368Z,9.93
2018-07-25T04:49:16.553Z,13.00
2018-07-25T04:52:20.772Z,13.63
2018-07-25T04:55:24.993Z,10.77
2018-07-25T04:58:29.881Z,10.53
2018-07-25T05:01:34.121Z,12.50
2018-07-25T05:04:38.329Z,10.80
2018-07-25T05:07:42.557Z,16.90
2018-07-25T05:10:46.785Z,10.53
2018-07-25T05:13:51.004Z,11.90
2018-07-25T05:16:55.232Z,13.67
2018-07-25T05:19:59.457Z,9.60
2018-07-25T05:23:03.666Z,12.60
2018-07-25T05:26:07.842Z,10.40
2018-07-25T05:29:12.070Z,11.50
2018-07-25T05:32:16.281Z,16.53
2018-07-25T05:35:20.488Z,15.30
2018-07-25T05:38:24.715Z,8.77
2018-07-25T05:41:28.961Z,13.50
2018-07-25T05:44:33.196Z,9.67
2018-07-25T05:47:37.448Z,11.37
2018-07-25T05:50:41.717Z,9.53
2018-07-25T05:53:46.086Z,11.03
2018-07-25T05:56:50.322Z,9.87
2018-07-25T05:59:54.504Z,8.67
2018-07-25T06:02:58.721Z,9.00
2018-07-25T06:06:02.985Z,8.20
2018-07-25T06:09:09.427Z,9.23
2018-07-25T06:12:13.642Z,10.23
2018-07-25T06:15:17.633Z,11.57
2018-07-25T06:18:21.828Z,9.50
2018-07-25T06:21:26.029Z,10.27
2018-07-25T06:24:30.220Z,10.60
2018-07-25T06:27:34.538Z,9.53
2018-07-25T06:30:38.753Z,12.13
2018-07-25T06:33:42.959Z,9.67
2018-07-25T06:36:47.150Z,13.17
2018-07-25T06:39:51.385Z,9.07
2018-07-25T06:42:55.656Z,7.07
2018-07-25T06:45:59.852Z,8.50
2018-07-25T06:49:04.312Z,10.73
2018-07-25T06:52:08.531Z,6.00
2018-07-25T06:55:12.760Z,5.37
2018-07-25T06:58:16.949Z,7.03
2018-07-25T07:01:21.140Z,8.00
2018-07-25T07:04:25.369Z,5.70
2018-07-25T07:07:29.568Z,5.30
2018-07-25T07:10:33.819Z,6.77
2018-07-25T07:13:38.035Z,6.20
2018-07-25T07:16:42.256Z,5.97
2018-07-25T07:19:46.468Z,8.57
2018-07-25T07:22:50.697Z,5.23
2018-07-25T07:25:54.978Z,6.13
2018-07-25T07:28:59.129Z,4.63
2018-07-25T07:32:03.340Z,7.30
2018-07-25T07:35:07.544Z,5.80
2018-07-25T07:38:11.764Z,7.37
2018-07-25T07:41:15.965Z,5.37
2018-07-25T07:44:20.176Z,6.03
2018-07-25T07:47:24.388Z,5.17
2018-07-25T07:50:28.580Z,4.23
2018-07-25T07:53:32.792Z,8.13
2018-07-25T07:56:36.987Z,4.33
2018-07-25T07:59:41.181Z,3.93
2018-07-25T08:02:45.384Z,5.00
2018-07-25T08:05:49.609Z,3.20
2018-07-25T08:08:53.809Z,3.47
2018-07-25T08:11:58.053Z,4.83
2018-07-25T08:15:02.253Z,5.57
2018-07-25T08:18:06.459Z,5.97
2018-07-25T08:21:10.769Z,8.17
2018-07-25T08:24:14.952Z,5.73
2018-07-25T08:27:19.210Z,7.07
2018-07-25T08:30:23.197Z,4.10
2018-07-25T08:33:27.421Z,3.23
2018-07-25T08:36:31.632Z,4.30
2018-07-25T08:39:35.915Z,5.07
2018-07-25T08:42:42.258Z,7.00
2018-07-25T08:45:51.458Z,9.77
2018-07-25T08:48:56.127Z,16.53
2018-07-25T08:52:00.925Z,6.67
2018-07-25T08:55:05.427Z,8.27
2018-07-25T08:58:10.934Z,3.53
2018-07-25T09:01:18.555Z,5.90
2018-07-25T09:04:24.518Z,8.07
2018-07-25T09:07:29.005Z,5.10
2018-07-25T09:10:33.212Z,5.43
2018-07-25T09:13:37.449Z,5.23
2018-07-25T09:16:41.719Z,9.20
2018-07-25T09:19:46.089Z,5.37
2018-07-25T09:22:50.309Z,9.47
2018-07-25T09:25:54.551Z,5.70
2018-07-25T09:28:58.754Z,2.53
2018-07-25T09:32:02.992Z,4.80
2018-07-25T09:35:07.236Z,3.77
2018-07-25T09:38:11.490Z,8.90
2018-07-25T09:41:15.722Z,5.53
2018-07-25T09:44:19.940Z,4.50
2018-07-25T09:47:24.199Z,4.83
2018-07-25T09:50:28.391Z,5.33
2018-07-25T09:53:32.647Z,5.77
2018-07-25T09:56:36.869Z,5.87
2018-07-25T09:59:40.871Z,4.70
2018-07-25T10:02:45.129Z,4.63
2018-07-25T10:05:49.305Z,6.47
2018-07-25T10:08:53.537Z,6.60
2018-07-25T10:11:57.764Z,4.53
2018-07-25T10:15:01.999Z,6.97
2018-07-25T10:18:06.384Z,2.83
2018-07-25T10:21:10.597Z,7.60
2018-07-25T10:24:14.846Z,5.30
2018-07-25T10:27:19.112Z,4.50
2018-07-25T10:30:23.469Z,5.43
2018-07-25T10:33:27.741Z,7.73
2018-07-25T10:36:31.960Z,5.40
2018-07-25T10:39:36.196Z,5.00
2018-07-25T10:42:40.457Z,6.60
2018-07-25T10:45:44.624Z,6.27
2018-07-25T10:48:48.873Z,3.63
2018-07-25T10:51:53.074Z,3.33
2018-07-25T10:54:57.296Z,5.50
2018-07-25T10:58:01.542Z,7.00
2018-07-25T11:01:05.832Z,3.10
2018-07-25T11:04:10.049Z,4.90
2018-07-25T11:07:14.277Z,3.73
2018-07-25T11:10:18.499Z,6.33
2018-07-25T11:13:22.697Z,5.90
2018-07-25T11:16:27.002Z,3.60
2018-07-25T11:19:31.196Z,7.27
2018-07-25T11:22:35.449Z,4.93
2018-07-25T11:25:39.665Z,6.63
2018-07-25T11:28:43.917Z,4.20
2018-07-25T11:31:48.153Z,4.40
2018-07-25T11:34:52.373Z,3.53
2018-07-25T11:37:56.625Z,5.03
2018-07-25T11:41:01.236Z,6.23
2018-07-25T11:44:05.448Z,8.23
2018-07-25T11:47:09.662Z,3.50
2018-07-25T11:50:13.957Z,2.83
2018-07-25T11:53:18.162Z,5.30
2018-07-25T11:56:22.401Z,6.43
2018-07-25T11:59:26.632Z,4.60
2018-07-25T12:02:30.828Z,4.77
2018-07-25T12:05:35.041Z,3.87
2018-07-25T12:08:39.277Z,4.77
2018-07-25T12:11:46.500Z,3.53
2018-07-25T12:14:50.742Z,6.23
2018-07-25T12:17:54.940Z,6.80
2018-07-25T12:20:59.188Z,7.23
2018-07-25T12:24:03.398Z,5.37
2018-07-25T12:27:07.627Z,4.17
2018-07-25T12:30:11.860Z,4.87
2018-07-25T12:33:15.957Z,5.40
2018-07-25T12:36:20.373Z,4.57
2018-07-25T12:39:24.641Z,4.87
2018-07-25T12:42:28.855Z,8.67
2018-07-25T12:45:33.092Z,6.80
2018-07-25T12:48:37.325Z,5.17
2018-07-25T12:51:41.568Z,4.77
2018-07-25T12:54:45.809Z,8.53
2018-07-25T12:57:49.799Z,5.87
2018-07-25T13:00:54.042Z,7.23
2018-07-25T13:03:58.298Z,4.30
2018-07-25T13:07:02.535Z,7.87
2018-07-25T13:10:06.820Z,4.90
2018-07-25T13:13:11.065Z,6.20
2018-07-25T13:16:15.322Z,6.00
2018-07-25T13:19:19.571Z,3.10
2018-07-25T13:22:23.826Z,9.73
2018-07-25T13:25:28.081Z,4.73
2018-07-25T13:28:32.351Z,3.60
2018-07-25T13:31:36.559Z,3.73
2018-07-25T13:34:40.804Z,5.07
2018-07-25T13:37:45.025Z,6.67
2018-07-25T13:40:49.250Z,7.57
2018-07-25T13:43:53.465Z,4.33
2018-07-25T13:46:57.691Z,6.17
2018-07-25T13:50:01.932Z,7.93
2018-07-25T13:53:06.313Z,5.27
2018-07-25T13:56:10.561Z,3.33
2018-07-25T13:59:14.544Z,4.93
2018-07-25T14:02:18.792Z,4.17
2018-07-25T14:05:23.026Z,3.77
2018-07-25T14:08:27.234Z,8.40
2018-07-25T14:11:31.540Z,8.87
2018-07-25T14:14:35.692Z,6.90
2018-07-25T14:17:39.926Z,7.07
2018-07-25T14:20:44.558Z,4.83
2018-07-25T14:23:48.886Z,6.40
2018-07-25T14:26:53.091Z,10.40
2018-07-25T14:29:57.342Z,4.70
2018-07-25T14:33:01.560Z,4.47
2018-07-25T14:36:06.166Z,6.53
2018-07-25T14:39:11.398Z,3.53
2018-07-25T14:42:15.645Z,5.13
2018-07-25T14:45:19.845Z,5.53
2018-07-25T14:48:24.049Z,3.97
2018-07-25T14:51:28.320Z,5.20
2018-07-25T14:54:32.522Z,6.73
2018-07-25T14:57:36.749Z,4.93
2018-07-25T15:00:40.985Z,4.77
2018-07-25T15:03:45.241Z,4.53
2018-07-25T15:06:49.488Z,8.13
2018-07-25T15:09:53.701Z,6.13
2018-07-25T15:12:59.549Z,4.97
2018-07-25T15:16:03.761Z,7.70
2018-07-25T15:19:08.034Z,7.27
2018-07-25T15:22:12.264Z,8.87
2018-07-25T15:25:16.518Z,4.87
2018-07-25T15:28:20.768Z,5.80
2018-07-25T15:31:25.037Z,5.67
2018-07-25T15:34:29.293Z,3.47
2018-07-25T15:37:33.545Z,4.33
2018-07-25T15:40:37.805Z,4.30
2018-07-25T15:43:42.020Z,3.03
2018-07-25T15:46:46.274Z,2.33
2018-07-25T15:49:50.444Z,3.63
2018-07-25T15:52:54.734Z,3.53
2018-07-25T15:55:58.917Z,2.77
2018-07-25T15:59:04.149Z,4.00
2018-07-25T16:02:09.176Z,5.47
2018-07-25T16:05:13.401Z,5.23
2018-07-25T16:08:17.657Z,2.03
2018-07-25T16:11:21.905Z,2.80
2018-07-25T16:14:26.177Z,2.30
2018-07-25T16:17:30.404Z,1.67
2018-07-25T16:20:34.645Z,2.70
2018-07-25T16:23:39.012Z,3.13
2018-07-25T16:26:43.264Z,2.77
2018-07-25T16:29:47.492Z,2.47
2018-07-25T16:32:51.732Z,2.37
2018-07-25T16:35:56.082Z,1.70
2018-07-25T16:39:00.300Z,1.90
2018-07-25T16:42:04.534Z,2.00
2018-07-25T16:45:08.774Z,2.73
2018-07-25T16:48:13.029Z,2.47
2018-07-25T16:51:17.252Z,2.60
2018-07-25T16:54:21.529Z,2.27
2018-07-25T16:57:25.773Z,2.50
2018-07-25T17:00:30.022Z,3.93
2018-07-25T17:03:34.288Z,5.43
2018-07-25T17:06:38.556Z,2.30
2018-07-25T17:09:42.834Z,2.20
2018-07-25T17:12:47.074Z,3.20
2018-07-25T17:15:51.328Z,3.27
2018-07-25T17:18:55.613Z,2.00
2018-07-25T17:21:59.882Z,2.07
2018-07-25T17:25:04.187Z,2.93
2018-07-25T17:28:08.449Z,2.93
2018-07-25T17:31:12.717Z,3.67
2018-07-25T17:34:16.972Z,5.57
2018-07-25T17:37:21.238Z,4.23
2018-07-25T17:40:25.545Z,5.70
2018-07-25T17:43:29.837Z,2.83
2018-07-25T17:46:34.076Z,4.83
2018-07-25T17:49:38.341Z,3.27
2018-07-25T17:52:42.579Z,4.93
2018-07-25T17:55:46.841Z,3.40
2018-07-25T17:58:51.053Z,5.20
2018-07-25T18:01:55.347Z,2.57
2018-07-25T18:04:59.352Z,4.87
2018-07-25T18:08:03.607Z,4.70
2018-07-25T18:11:07.834Z,3.30
2018-07-25T18:14:15.260Z,3.00
2018-07-25T18:17:19.498Z,3.23
2018-07-25T18:20:23.766Z,3.43
2018-07-25T18:23:28.009Z,6.57
2018-07-25T18:26:32.236Z,4.83
2018-07-25T18:29:36.458Z,3.60
2018-07-25T18:32:40.700Z,4.03
2018-07-25T18:35:44.951Z,7.37
2018-07-25T18:38:49.141Z,4.03
2018-07-25T18:41:53.340Z,4.40
2018-07-25T18:44:57.553Z,6.57
2018-07-25T18:48:01.766Z,4.43
2018-07-25T18:51:06.189Z,5.87
2018-07-25T18:54:10.417Z,5.63
2018-07-25T18:57:14.621Z,5.63
2018-07-25T19:00:18.845Z,4.30
2018-07-25T19:03:23.063Z,5.30
2018-07-25T19:06:27.300Z,5.30
2018-07-25T19:09:31.510Z,8.17
2018-07-25T19:12:35.728Z,5.10
2018-07-25T19:15:39.959Z,5.07
2018-07-25T19:18:44.155Z,9.73
2018-07-25T19:21:48.377Z,10.80
2018-07-25T19:24:52.608Z,4.47
2018-07-25T19:27:56.801Z,4.77
2018-07-25T19:31:01.021Z,8.37
2018-07-25T19:34:05.204Z,4.53
2018-07-25T19:37:09.449Z,5.60
2018-07-25T19:40:13.673Z,5.57
2018-07-25T19:43:17.927Z,8.53
2018-07-25T19:46:22.134Z,7.00
2018-07-25T19:49:26.366Z,7.90
2018-07-25T19:52:30.556Z,6.77
2018-07-25T19:55:34.805Z,6.00
2018-07-25T19:58:39.021Z,5.40
2018-07-25T20:01:43.209Z,5.20
2018-07-25T20:04:47.465Z,5.13
2018-07-25T20:07:51.669Z,5.80
2018-07-25T20:10:55.865Z,4.50
2018-07-25T20:14:05.445Z,7.87
2018-07-25T20:17:09.647Z,8.33
2018-07-25T20:20:13.889Z,4.53
2018-07-25T20:23:18.101Z,6.67
2018-07-25T20:26:22.323Z,5.77
2018-07-25T20:29:26.533Z,6.50
2018-07-25T20:32:30.736Z,5.50
2018-07-25T20:35:34.940Z,9.27
2018-07-25T20:38:39.150Z,9.07
2018-07-25T20:41:43.357Z,5.87
2018-07-25T20:44:47.573Z,8.53
2018-07-25T20:47:51.809Z,5.27
2018-07-25T20:50:56.044Z,5.33
2018-07-25T20:54:00.273Z,4.53
2018-07-25T20:57:04.537Z,7.97
2018-07-25T21:00:08.820Z,5.00
2018-07-25T21:03:13.002Z,6.37
2018-07-25T21:06:17.226Z,7.83
2018-07-25T21:09:21.451Z,7.43
2018-07-25T21:12:25.788Z,4.70
2018-07-25T21:15:30.038Z,9.50
2018-07-25T21:18:34.229Z,9.87
2018-07-25T21:21:38.525Z,6.87
2018-07-25T21:24:42.667Z,7.17
2018-07-25T21:27:46.922Z,10.07
2018-07-25T21:30:51.117Z,6.50
2018-07-25T21:33:55.320Z,7.00
2018-07-25T21:36:59.530Z,5.50
2018-07-25T21:40:03.793Z,9.00
2018-07-25T21:43:07.993Z,9.57
2018-07-25T21:46:12.192Z,8.70
2018-07-25T21:49:16.386Z,12.30
2018-07-25T21:52:20.636Z,6.47
2018-07-25T21:55:24.848Z,7.63
2018-07-25T21:58:29.066Z,8.73
2018-07-25T22:01:33.260Z,7.63
2018-07-25T22:04:37.526Z,8.93
2018-07-25T22:07:41.769Z,6.73
2018-07-25T22:10:45.990Z,6.27
2018-07-25T22:13:55.713Z,10.87
2018-07-25T22:16:59.899Z,10.93
2018-07-25T22:20:04.169Z,8.53
2018-07-25T22:23:08.412Z,11.80
2018-07-25T22:26:12.824Z,11.23
2018-07-25T22:29:17.018Z,7.37
2018-07-25T22:32:21.233Z,10.93
2018-07-25T22:35:25.472Z,10.07
2018-07-25T22:38:29.686Z,12.70
2018-07-25T22:41:33.904Z,8.30
2018-07-25T22:44:38.132Z,7.13
2018-07-25T22:47:42.346Z,7.50
2018-07-25T22:50:46.602Z,11.97
2018-07-25T22:53:50.828Z,12.27
2018-07-25T22:56:55.053Z,7.73
2018-07-25T22:59:59.266Z,8.80
2018-07-25T23:03:03.485Z,8.63
2018-07-25T23:06:07.760Z,7.57
2018-07-25T23:09:12.644Z,11.83
2018-07-25T23:12:16.840Z,10.10
2018-07-25T23:15:21.168Z,9.67
2018-07-25T23:18:25.386Z,5.90
2018-07-25T23:21:29.608Z,8.33
2018-07-25T23:24:33.846Z,9.60
2018-07-25T23:27:38.049Z,13.23
2018-07-25T23:30:42.329Z,9.67
2018-07-25T23:33:47.376Z,8.10
2018-07-25T23:36:51.597Z,7.43
2018-07-25T23:39:55.837Z,13.37
2018-07-25T23:43:00.040Z,9.33
2018-07-25T23:46:04.265Z,12.30
2018-07-25T23:49:08.475Z,9.20
2018-07-25T23:52:12.710Z,6.40
2018-07-25T23:55:16.920Z,9.10
2018-07-25T23:58:21.137Z,12.10
